ADDS METAR Data INFO
IDs: Format: Raw Decoded Include TAF

Data at: 0542 UTC 25 Feb 2018

KGPM 250535Z AUTO 00000KT 10SM CLR 10/07 A3002 RMK AO2 T01020070
KGPM 250515Z AUTO 24003KT 10SM CLR 11/07 A3002 RMK AO2 T01070071
KGPM 250455Z AUTO 00000KT 10SM CLR 11/08 A3002 RMK AO2 T01070075
KGPM 250435Z AUTO 00000KT 10SM CLR 11/07 A3001 RMK AO2 T01100074
KGPM 250415Z AUTO 00000KT 10SM CLR 11/08 A3000 RMK AO2 T01110076
KGPM 250355Z AUTO 00000KT 10SM CLR 12/08 A2999 RMK AO2 T01160076
KGPM 250335Z AUTO 00000KT 10SM CLR 12/08 A2999 RMK AO2 T01170075
KGPM 250315Z AUTO 00000KT 10SM CLR 12/07 A2999 RMK AO2 T01170073
KGPM 250255Z AUTO 00000KT 10SM CLR 13/07 A2998 RMK AO2 T01250071
KGPM 250235Z AUTO 00000KT 10SM CLR 13/07 A2996 RMK AO2 T01330066
KGPM 250215Z AUTO 00000KT 10SM CLR 14/07 A2996 RMK AO2 T01360066
KGPM 250155Z AUTO 00000KT 10SM CLR 13/07 A2995 RMK AO2 T01280070
KGPM 250135Z AUTO 00000KT 10SM CLR 13/07 A2994 RMK AO2 T01320070
KGPM 250115Z AUTO 00000KT 10SM CLR 13/07 A2993 RMK AO2 T01310068
KGPM 250055Z AUTO 00000KT 10SM CLR 14/07 A2993 RMK AO2 T01370068
KGPM 250035Z AUTO 00000KT 10SM CLR 15/06 A2993 RMK AO2 T01530061
KGPM 250015Z AUTO 33003KT 10SM CLR 16/06 A2992 RMK AO2 T01560062
KGPM 242350Z 32005KT 10SM SKC 17/06 A2991
KGPM 242250Z 33004KT 10SM SKC 17/06 A2989
KGPM 242150Z 30006KT 10SM SKC 17/08 A2988
KGPM 242050Z 29005G15KT 10SM SKC 16/10 A2988
KGPM 241950Z 27007G14KT 10SM SKC 13/10 A2988
KGPM 241850Z 29006KT 10SM BKN011 OVC020 11/11 A2991
KGPM 241750Z 27010G15KT 10SM SCT007 OVC012 11/11 A2989
KGPM 241650Z 24012G18KT 1 1/4SM RA OVC007 17/17 A2985
KGPM 241550Z 21006KT 7SMSM BR OVC007 17/17 A2984
KGPM 241450Z 10011G15KT 5SMSM BR OVC007 16/16 A2981
KGPM 241350Z 08007KT 3SMSM RA BKN003 OVC006 10/10 A2987
KGPM 241335Z AUTO 08004KT 2 1/2SM OVC003 10/10 A2986 RMK AO2 P0013 T00960096
KGPM 241315Z AUTO 33004KT 5SM OVC003 10/10 A2987 RMK AO2 P0001 T00950095
KGPM 241255Z AUTO 33007KT 4SM OVC003 09/09 A2985 RMK AO2 P0002 T00940094
KGPM 241235Z AUTO 00000KT 4SM OVC003 09/09 A2987 RMK AO2 P0002 T00900090
KGPM 241215Z AUTO 09007KT 2 1/2SM OVC003 09/09 A2987 RMK AO2 P0001 T00850085
KGPM 241155Z AUTO 10003KT 1 3/4SM OVC001 09/09 A2991 RMK AO2 P0007 60007 70011 T00850085 10085 20070
KGPM 241135Z AUTO 00000KT 1 1/4SM OVC001 08/08 A2993 RMK AO2 P0001 T00820082
KGPM 241115Z AUTO 00000KT 1 1/4SM OVC001 08/08 A2993 RMK AO2 T00800080
KGPM 241055Z AUTO 08004KT 3/4SM OVC001 08/08 A2991 RMK AO2 T00790079
KGPM 241035Z AUTO 00000KT 3/4SM OVC001 08/08 A2993 RMK AO2 T00770077
KGPM 241015Z AUTO 00000KT 1/2SM OVC003 08/08 A2994 RMK AO2 T00770077
KGPM 240955Z AUTO 00000KT 1/2SM OVC003 08/08 A2995 RMK AO2 T00760076
KGPM 240935Z AUTO 00000KT 3/4SM OVC003 08/08 A2997 RMK AO2 T00750075
KGPM 240915Z AUTO 00000KT 1SM OVC003 08/08 A2998 RMK AO2 T00750075
KGPM 240855Z AUTO 00000KT 1 1/2SM OVC003 08/08 A2998 RMK AO2 T00750075
KGPM 240835Z AUTO 00000KT 1 3/4SM OVC003 08/08 A3000 RMK AO2 T00750075
KGPM 240815Z AUTO 00000KT 1 3/4SM OVC003 07/07 A3000 RMK AO2 T00740074
KGPM 240755Z AUTO 00000KT 2SM OVC003 07/07 A3000 RMK AO2 T00740074
KGPM 240735Z AUTO 00000KT 4SM OVC005 08/08 A3001 RMK AO2 T00750075
KGPM 240715Z AUTO 00000KT 7SM OVC007 07/07 A3002 RMK AO2 T00740074
KGPM 240655Z AUTO 00000KT 7SM SCT003 OVC007 07/07 A3002 RMK AO2 T00730073
KGPM 240635Z AUTO 00000KT 7SM SCT003 OVC007 07/07 A3002 RMK AO2 T00720072
KGPM 240615Z AUTO 00000KT 7SM BKN003 OVC008 07/07 A3001 RMK AO2 T00700070
KGPM 240555Z AUTO 00000KT 7SM OVC003 07/07 A3003 RMK AO2 T00700070 10094 20069 401030037
KGPM 240535Z AUTO 00000KT 7SM OVC003 07/07 A3005 RMK AO2 T00700070
KGPM 240515Z AUTO 28003KT 7SM OVC003 07/07 A3005 RMK AO2 T00700070
KGPM 240455Z AUTO 27004KT 7SM OVC003 07/07 A3005 RMK AO2 T00700070
KGPM 240435Z AUTO 28004KT 4SM OVC003 07/07 A3006 RMK AO2 T00720072
KGPM 240415Z AUTO 28005KT 5SM OVC003 08/08 A3006 RMK AO2 T00820082
KGPM 240355Z AUTO 30003KT 7SM OVC003 08/08 A3007 RMK AO2 T00830083
KGPM 240335Z AUTO 00000KT 4SM OVC003 08/08 A3007 RMK AO2 T00830083
KGPM 240315Z AUTO 00000KT 3SM OVC003 08/08 A3007 RMK AO2 T00830083
KGPM 240255Z AUTO 00000KT 1 3/4SM OVC003 09/09 A3007 RMK AO2 T00850085
KGPM 240235Z AUTO 00000KT 3/4SM OVC003 09/09 A3006 RMK AO2 T00890089
KGPM 240215Z AUTO 00000KT 1SM OVC003 09/09 A3007 RMK AO2 T00900090
KGPM 240155Z AUTO 00000KT 1 1/4SM OVC003 09/09 A3007 RMK AO2 T00900090
KGPM 240135Z AUTO 30003KT 1 3/4SM OVC003 09/09 A3006 RMK AO2 T00910091
KGPM 240115Z AUTO 00000KT 2 1/2SM OVC003 09/09 A3006 RMK AO2 T00920092
KGPM 240055Z AUTO 00000KT 2SM OVC003 09/09 A3006 RMK AO2 T00920092
KGPM 240035Z AUTO 00000KT 2 1/2SM OVC003 09/09 A3006 RMK AO2 T00920092
KGPM 240015Z AUTO 00000KT 1 3/4SM OVC003 09/09 A3006 RMK AO2 T00930093
KGPM 232350Z 00000KT 1 1/2SM FG OVC003 09/09 A3007
KGPM 232250Z 00000KT 3/4SM FG OVC005 10/10 A3008
KGPM 232150Z 06005KT 2 1/2SM FG OVC003 10/10 A3008
KGPM 232050Z 06005KT 2 1/2SM FG OVC003 09/09 A3008
KGPM 231950Z 00000KT 3SM OVC005 07/07 A3013
KGPM 231850Z 00000KT 3SM OVC005 07/07 A3016
KGPM 231750Z 00000KT 3SM OVC003 07/07 A3021